sensor_id;sensor_type;location;lat;lon;timestamp;P1;durP1;ratioP1;P2;durP2;ratioP2
27305;SDS011;14792;50.886;6.468;2024-01-07T00:00:08;87.72;;;34.23;;
27305;SDS011;14792;50.886;6.468;2024-01-07T00:03:10;82.70;;;36.53;;
27305;SDS011;14792;50.886;6.468;2024-01-07T00:06:11;88.40;;;34.63;;
27305;SDS011;14792;50.886;6.468;2024-01-07T00:09:13;87.25;;;35.38;;
27305;SDS011;14792;50.886;6.468;2024-01-07T00:12:14;112.05;;;39.08;;
27305;SDS011;14792;50.886;6.468;2024-01-07T00:15:16;110.17;;;40.33;;
27305;SDS011;14792;50.886;6.468;2024-01-07T00:18:18;114.80;;;39.90;;
27305;SDS011;14792;50.886;6.468;2024-01-07T00:21:19;122.42;;;40.50;;
27305;SDS011;14792;50.886;6.468;2024-01-07T00:24:21;136.57;;;44.77;;
27305;SDS011;14792;50.886;6.468;2024-01-07T00:27:22;138.25;;;43.78;;
27305;SDS011;14792;50.886;6.468;2024-01-07T00:30:24;138.65;;;43.65;;
27305;SDS011;14792;50.886;6.468;2024-01-07T00:33:26;148.97;;;44.42;;
27305;SDS011;14792;50.886;6.468;2024-01-07T00:36:27;167.93;;;46.20;;
27305;SDS011;14792;50.886;6.468;2024-01-07T00:39:29;137.22;;;45.28;;
27305;SDS011;14792;50.886;6.468;2024-01-07T00:42:30;153.55;;;44.85;;
27305;SDS011;14792;50.886;6.468;2024-01-07T00:45:32;150.32;;;45.10;;
27305;SDS011;14792;50.886;6.468;2024-01-07T00:48:34;141.90;;;44.53;;
27305;SDS011;14792;50.886;6.468;2024-01-07T00:51:35;128.47;;;44.75;;
27305;SDS011;14792;50.886;6.468;2024-01-07T00:54:37;143.30;;;44.58;;
27305;SDS011;14792;50.886;6.468;2024-01-07T00:57:38;139.90;;;44.88;;
27305;SDS011;14792;50.886;6.468;2024-01-07T01:00:40;149.80;;;48.10;;
27305;SDS011;14792;50.886;6.468;2024-01-07T01:03:41;148.22;;;47.23;;
27305;SDS011;14792;50.886;6.468;2024-01-07T01:06:43;144.97;;;45.98;;
27305;SDS011;14792;50.886;6.468;2024-01-07T01:09:45;157.20;;;48.42;;
27305;SDS011;14792;50.886;6.468;2024-01-07T01:12:46;162.72;;;48.80;;
27305;SDS011;14792;50.886;6.468;2024-01-07T01:15:48;156.57;;;46.75;;
27305;SDS011;14792;50.886;6.468;2024-01-07T01:18:50;165.12;;;50.98;;
27305;SDS011;14792;50.886;6.468;2024-01-07T01:21:51;149.70;;;49.53;;
27305;SDS011;14792;50.886;6.468;2024-01-07T01:24:53;166.10;;;50.85;;
27305;SDS011;14792;50.886;6.468;2024-01-07T01:27:54;154.80;;;50.20;;
27305;SDS011;14792;50.886;6.468;2024-01-07T01:30:56;167.13;;;50.80;;
27305;SDS011;14792;50.886;6.468;2024-01-07T01:33:57;169.32;;;50.38;;
27305;SDS011;14792;50.886;6.468;2024-01-07T01:36:59;172.93;;;52.70;;
27305;SDS011;14792;50.886;6.468;2024-01-07T01:40:01;167.50;;;48.48;;
27305;SDS011;14792;50.886;6.468;2024-01-07T01:43:02;174.65;;;51.28;;
27305;SDS011;14792;50.886;6.468;2024-01-07T01:46:04;180.82;;;52.88;;
27305;SDS011;14792;50.886;6.468;2024-01-07T01:49:06;165.75;;;50.52;;
27305;SDS011;14792;50.886;6.468;2024-01-07T01:52:07;166.32;;;49.77;;
27305;SDS011;14792;50.886;6.468;2024-01-07T01:55:08;163.45;;;48.25;;
27305;SDS011;14792;50.886;6.468;2024-01-07T01:58:10;164.97;;;48.73;;
27305;SDS011;14792;50.886;6.468;2024-01-07T02:01:12;173.32;;;50.25;;
27305;SDS011;14792;50.886;6.468;2024-01-07T02:04:14;170.15;;;52.60;;
27305;SDS011;14792;50.886;6.468;2024-01-07T02:07:15;170.90;;;49.27;;
27305;SDS011;14792;50.886;6.468;2024-01-07T02:10:16;175.05;;;50.17;;
27305;SDS011;14792;50.886;6.468;2024-01-07T02:13:18;167.10;;;47.30;;
27305;SDS011;14792;50.886;6.468;2024-01-07T02:16:20;149.32;;;47.30;;
27305;SDS011;14792;50.886;6.468;2024-01-07T02:19:21;140.07;;;44.18;;
27305;SDS011;14792;50.886;6.468;2024-01-07T02:22:23;152.82;;;44.75;;
27305;SDS011;14792;50.886;6.468;2024-01-07T02:25:24;149.00;;;43.85;;
27305;SDS011;14792;50.886;6.468;2024-01-07T02:28:26;132.60;;;42.53;;
27305;SDS011;14792;50.886;6.468;2024-01-07T02:31:28;135.45;;;42.60;;
27305;SDS011;14792;50.886;6.468;2024-01-07T02:34:29;130.90;;;42.90;;
27305;SDS011;14792;50.886;6.468;2024-01-07T02:37:31;142.30;;;43.80;;
27305;SDS011;14792;50.886;6.468;2024-01-07T02:40:32;139.47;;;41.18;;
27305;SDS011;14792;50.886;6.468;2024-01-07T02:43:34;143.28;;;42.73;;
27305;SDS011;14792;50.886;6.468;2024-01-07T02:46:35;117.87;;;39.15;;
27305;SDS011;14792;50.886;6.468;2024-01-07T02:49:37;123.07;;;39.03;;
27305;SDS011;14792;50.886;6.468;2024-01-07T02:52:39;111.15;;;38.02;;
27305;SDS011;14792;50.886;6.468;2024-01-07T02:55:40;95.07;;;35.13;;
27305;SDS011;14792;50.886;6.468;2024-01-07T02:58:42;86.37;;;32.88;;
27305;SDS011;14792;50.886;6.468;2024-01-07T03:01:43;89.55;;;34.08;;
27305;SDS011;14792;50.886;6.468;2024-01-07T03:04:45;89.47;;;33.95;;
27305;SDS011;14792;50.886;6.468;2024-01-07T03:07:47;90.22;;;34.03;;
27305;SDS011;14792;50.886;6.468;2024-01-07T03:10:48;83.45;;;32.38;;
27305;SDS011;14792;50.886;6.468;2024-01-07T03:13:50;90.92;;;33.00;;
27305;SDS011;14792;50.886;6.468;2024-01-07T03:16:51;86.47;;;32.03;;
27305;SDS011;14792;50.886;6.468;2024-01-07T03:19:53;81.80;;;31.07;;
27305;SDS011;14792;50.886;6.468;2024-01-07T03:22:55;79.05;;;31.35;;
27305;SDS011;14792;50.886;6.468;2024-01-07T03:25:57;73.65;;;30.40;;
27305;SDS011;14792;50.886;6.468;2024-01-07T03:28:58;85.32;;;32.98;;
27305;SDS011;14792;50.886;6.468;2024-01-07T03:31:59;80.62;;;32.42;;
27305;SDS011;14792;50.886;6.468;2024-01-07T03:35:02;79.35;;;32.58;;
27305;SDS011;14792;50.886;6.468;2024-01-07T03:38:05;83.90;;;33.70;;
27305;SDS011;14792;50.886;6.468;2024-01-07T03:41:07;92.02;;;37.03;;
27305;SDS011;14792;50.886;6.468;2024-01-07T03:44:09;93.20;;;37.35;;
27305;SDS011;14792;50.886;6.468;2024-01-07T03:47:10;89.55;;;35.98;;
27305;SDS011;14792;50.886;6.468;2024-01-07T03:50:11;96.12;;;35.90;;
27305;SDS011;14792;50.886;6.468;2024-01-07T03:53:13;88.30;;;36.23;;
27305;SDS011;14792;50.886;6.468;2024-01-07T03:56:17;93.67;;;39.30;;
27305;SDS011;14792;50.886;6.468;2024-01-07T03:59:16;102.72;;;40.45;;
27305;SDS011;14792;50.886;6.468;2024-01-07T04:02:18;95.50;;;41.42;;
27305;SDS011;14792;50.886;6.468;2024-01-07T04:05:19;90.97;;;40.03;;
27305;SDS011;14792;50.886;6.468;2024-01-07T04:08:21;92.08;;;41.95;;
27305;SDS011;14792;50.886;6.468;2024-01-07T04:11:23;97.25;;;42.25;;
27305;SDS011;14792;50.886;6.468;2024-01-07T04:14:24;88.82;;;40.52;;
27305;SDS011;14792;50.886;6.468;2024-01-07T04:17:26;87.62;;;40.55;;
27305;SDS011;14792;50.886;6.468;2024-01-07T04:20:27;71.80;;;35.15;;
27305;SDS011;14792;50.886;6.468;2024-01-07T04:23:29;69.90;;;33.23;;
27305;SDS011;14792;50.886;6.468;2024-01-07T04:26:31;62.48;;;32.23;;
27305;SDS011;14792;50.886;6.468;2024-01-07T04:29:32;63.65;;;32.58;;
27305;SDS011;14792;50.886;6.468;2024-01-07T04:32:34;56.80;;;31.20;;
27305;SDS011;14792;50.886;6.468;2024-01-07T04:35:36;55.58;;;29.48;;
27305;SDS011;14792;50.886;6.468;2024-01-07T04:38:37;54.88;;;30.35;;
27305;SDS011;14792;50.886;6.468;2024-01-07T04:41:39;52.95;;;29.00;;
27305;SDS011;14792;50.886;6.468;2024-01-07T04:44:41;48.20;;;27.65;;
27305;SDS011;14792;50.886;6.468;2024-01-07T04:47:42;53.50;;;29.98;;
27305;SDS011;14792;50.886;6.468;2024-01-07T04:53:45;53.08;;;29.37;;
27305;SDS011;14792;50.886;6.468;2024-01-07T04:56:47;55.70;;;29.90;;
27305;SDS011;14792;50.886;6.468;2024-01-07T04:59:49;51.90;;;30.17;;
27305;SDS011;14792;50.886;6.468;2024-01-07T05:02:50;56.35;;;31.50;;
27305;SDS011;14792;50.886;6.468;2024-01-07T05:05:52;54.40;;;28.52;;
27305;SDS011;14792;50.886;6.468;2024-01-07T05:08:53;54.73;;;26.40;;
27305;SDS011;14792;50.886;6.468;2024-01-07T05:11:55;53.78;;;27.42;;
27305;SDS011;14792;50.886;6.468;2024-01-07T05:14:56;55.00;;;29.07;;
27305;SDS011;14792;50.886;6.468;2024-01-07T05:17:58;53.63;;;27.98;;
27305;SDS011;14792;50.886;6.468;2024-01-07T05:21:00;58.30;;;28.70;;
27305;SDS011;14792;50.886;6.468;2024-01-07T05:24:01;57.55;;;29.15;;
27305;SDS011;14792;50.886;6.468;2024-01-07T05:27:03;59.93;;;30.27;;
27305;SDS011;14792;50.886;6.468;2024-01-07T05:30:04;60.10;;;29.75;;
27305;SDS011;14792;50.886;6.468;2024-01-07T05:33:06;61.08;;;29.82;;
27305;SDS011;14792;50.886;6.468;2024-01-07T05:36:08;60.55;;;30.60;;
27305;SDS011;14792;50.886;6.468;2024-01-07T05:39:09;52.10;;;27.70;;
27305;SDS011;14792;50.886;6.468;2024-01-07T05:42:11;55.38;;;29.90;;
27305;SDS011;14792;50.886;6.468;2024-01-07T05:45:13;46.37;;;26.55;;
27305;SDS011;14792;50.886;6.468;2024-01-07T05:48:14;47.17;;;26.33;;
27305;SDS011;14792;50.886;6.468;2024-01-07T05:51:16;47.83;;;25.82;;
27305;SDS011;14792;50.886;6.468;2024-01-07T05:54:17;49.45;;;26.62;;
27305;SDS011;14792;50.886;6.468;2024-01-07T05:57:19;46.37;;;26.85;;
27305;SDS011;14792;50.886;6.468;2024-01-07T06:00:20;50.55;;;27.52;;
27305;SDS011;14792;50.886;6.468;2024-01-07T06:03:22;46.02;;;26.60;;
27305;SDS011;14792;50.886;6.468;2024-01-07T06:06:24;51.85;;;27.73;;
27305;SDS011;14792;50.886;6.468;2024-01-07T06:09:25;50.40;;;28.40;;
27305;SDS011;14792;50.886;6.468;2024-01-07T06:12:27;54.93;;;28.00;;
27305;SDS011;14792;50.886;6.468;2024-01-07T06:15:29;51.65;;;28.07;;
27305;SDS011;14792;50.886;6.468;2024-01-07T06:18:30;48.17;;;28.35;;
27305;SDS011;14792;50.886;6.468;2024-01-07T06:21:32;43.90;;;25.25;;
27305;SDS011;14792;50.886;6.468;2024-01-07T06:24:33;43.90;;;25.97;;
27305;SDS011;14792;50.886;6.468;2024-01-07T06:27:35;45.15;;;25.35;;
27305;SDS011;14792;50.886;6.468;2024-01-07T06:30:36;42.10;;;24.70;;
27305;SDS011;14792;50.886;6.468;2024-01-07T06:33:38;40.10;;;23.25;;
27305;SDS011;14792;50.886;6.468;2024-01-07T06:36:40;39.85;;;24.15;;
27305;SDS011;14792;50.886;6.468;2024-01-07T06:39:44;40.43;;;23.22;;
27305;SDS011;14792;50.886;6.468;2024-01-07T06:42:45;38.23;;;22.62;;
27305;SDS011;14792;50.886;6.468;2024-01-07T06:45:47;37.98;;;23.65;;
27305;SDS011;14792;50.886;6.468;2024-01-07T06:48:48;41.08;;;24.70;;
27305;SDS011;14792;50.886;6.468;2024-01-07T06:51:50;41.37;;;25.70;;
27305;SDS011;14792;50.886;6.468;2024-01-07T06:54:51;41.85;;;24.57;;
27305;SDS011;14792;50.886;6.468;2024-01-07T06:57:53;43.42;;;25.97;;
27305;SDS011;14792;50.886;6.468;2024-01-07T07:00:55;44.65;;;26.15;;
27305;SDS011;14792;50.886;6.468;2024-01-07T07:03:56;45.25;;;27.77;;
27305;SDS011;14792;50.886;6.468;2024-01-07T07:06:58;47.40;;;28.10;;
27305;SDS011;14792;50.886;6.468;2024-01-07T07:09:59;52.75;;;28.87;;
27305;SDS011;14792;50.886;6.468;2024-01-07T07:13:01;51.37;;;28.83;;
27305;SDS011;14792;50.886;6.468;2024-01-07T07:16:03;53.70;;;30.48;;
27305;SDS011;14792;50.886;6.468;2024-01-07T07:19:04;49.08;;;28.65;;
27305;SDS011;14792;50.886;6.468;2024-01-07T07:22:06;48.28;;;28.05;;
27305;SDS011;14792;50.886;6.468;2024-01-07T07:25:07;53.95;;;29.63;;
27305;SDS011;14792;50.886;6.468;2024-01-07T07:28:09;51.90;;;29.00;;
27305;SDS011;14792;50.886;6.468;2024-01-07T07:31:11;50.80;;;30.35;;
27305;SDS011;14792;50.886;6.468;2024-01-07T07:34:12;53.98;;;32.03;;
27305;SDS011;14792;50.886;6.468;2024-01-07T07:37:14;55.48;;;31.40;;
27305;SDS011;14792;50.886;6.468;2024-01-07T07:40:15;53.95;;;30.45;;
27305;SDS011;14792;50.886;6.468;2024-01-07T07:43:17;62.98;;;33.28;;
27305;SDS011;14792;50.886;6.468;2024-01-07T07:46:19;53.65;;;30.50;;
27305;SDS011;14792;50.886;6.468;2024-01-07T07:49:20;53.50;;;30.45;;
27305;SDS011;14792;50.886;6.468;2024-01-07T07:52:22;55.63;;;31.60;;
27305;SDS011;14792;50.886;6.468;2024-01-07T07:55:23;60.23;;;31.80;;
27305;SDS011;14792;50.886;6.468;2024-01-07T07:58:25;59.65;;;30.68;;
27305;SDS011;14792;50.886;6.468;2024-01-07T08:01:26;58.55;;;30.40;;
27305;SDS011;14792;50.886;6.468;2024-01-07T08:04:28;58.25;;;29.80;;
27305;SDS011;14792;50.886;6.468;2024-01-07T08:07:30;58.60;;;32.42;;
27305;SDS011;14792;50.886;6.468;2024-01-07T08:10:31;66.37;;;32.60;;
27305;SDS011;14792;50.886;6.468;2024-01-07T08:13:34;59.75;;;30.68;;
27305;SDS011;14792;50.886;6.468;2024-01-07T08:16:34;60.83;;;32.90;;
27305;SDS011;14792;50.886;6.468;2024-01-07T08:19:36;66.02;;;32.30;;
27305;SDS011;14792;50.886;6.468;2024-01-07T08:22:38;60.83;;;30.65;;
27305;SDS011;14792;50.886;6.468;2024-01-07T08:25:39;59.53;;;29.92;;
27305;SDS011;14792;50.886;6.468;2024-01-07T08:31:42;54.03;;;29.18;;
27305;SDS011;14792;50.886;6.468;2024-01-07T08:34:44;54.08;;;30.65;;
27305;SDS011;14792;50.886;6.468;2024-01-07T08:37:45;61.13;;;31.95;;
27305;SDS011;14792;50.886;6.468;2024-01-07T08:40:47;57.83;;;31.45;;
27305;SDS011;14792;50.886;6.468;2024-01-07T08:43:49;61.15;;;30.43;;
27305;SDS011;14792;50.886;6.468;2024-01-07T08:46:50;57.30;;;31.42;;
27305;SDS011;14792;50.886;6.468;2024-01-07T08:49:52;57.95;;;33.85;;
27305;SDS011;14792;50.886;6.468;2024-01-07T08:52:53;61.88;;;32.58;;
27305;SDS011;14792;50.886;6.468;2024-01-07T08:55:55;64.90;;;37.73;;
27305;SDS011;14792;50.886;6.468;2024-01-07T08:58:56;62.73;;;35.98;;
27305;SDS011;14792;50.886;6.468;2024-01-07T09:01:58;62.15;;;34.90;;
27305;SDS011;14792;50.886;6.468;2024-01-07T09:05:00;61.85;;;33.25;;
27305;SDS011;14792;50.886;6.468;2024-01-07T09:08:01;51.58;;;29.52;;
27305;SDS011;14792;50.886;6.468;2024-01-07T09:11:06;56.63;;;31.87;;
27305;SDS011;14792;50.886;6.468;2024-01-07T09:14:08;55.63;;;30.92;;
27305;SDS011;14792;50.886;6.468;2024-01-07T09:17:09;52.58;;;30.43;;
27305;SDS011;14792;50.886;6.468;2024-01-07T09:20:11;57.53;;;30.12;;
27305;SDS011;14792;50.886;6.468;2024-01-07T09:23:13;59.55;;;30.82;;
27305;SDS011;14792;50.886;6.468;2024-01-07T09:26:16;55.92;;;30.80;;
27305;SDS011;14792;50.886;6.468;2024-01-07T09:29:17;63.78;;;34.75;;
27305;SDS011;14792;50.886;6.468;2024-01-07T09:32:19;55.83;;;31.15;;
27305;SDS011;14792;50.886;6.468;2024-01-07T09:35:20;57.03;;;32.03;;
27305;SDS011;14792;50.886;6.468;2024-01-07T09:38:22;64.22;;;35.68;;
27305;SDS011;14792;50.886;6.468;2024-01-07T09:41:23;65.40;;;34.73;;
27305;SDS011;14792;50.886;6.468;2024-01-07T09:44:25;65.62;;;33.60;;
27305;SDS011;14792;50.886;6.468;2024-01-07T09:47:27;61.02;;;33.70;;
27305;SDS011;14792;50.886;6.468;2024-01-07T09:50:28;60.78;;;32.93;;
27305;SDS011;14792;50.886;6.468;2024-01-07T09:53:30;66.30;;;35.65;;
27305;SDS011;14792;50.886;6.468;2024-01-07T09:56:35;62.65;;;33.83;;
27305;SDS011;14792;50.886;6.468;2024-01-07T09:59:34;64.70;;;35.08;;
27305;SDS011;14792;50.886;6.468;2024-01-07T10:02:35;67.95;;;35.03;;
27305;SDS011;14792;50.886;6.468;2024-01-07T10:05:37;66.30;;;34.53;;
27305;SDS011;14792;50.886;6.468;2024-01-07T10:08:38;64.50;;;34.40;;
27305;SDS011;14792;50.886;6.468;2024-01-07T10:11:40;63.28;;;32.35;;
27305;SDS011;14792;50.886;6.468;2024-01-07T10:14:41;58.80;;;30.08;;
27305;SDS011;14792;50.886;6.468;2024-01-07T10:17:44;65.10;;;33.78;;
27305;SDS011;14792;50.886;6.468;2024-01-07T10:20:45;57.23;;;33.20;;
27305;SDS011;14792;50.886;6.468;2024-01-07T10:23:46;61.98;;;33.00;;
27305;SDS011;14792;50.886;6.468;2024-01-07T10:26:48;55.70;;;30.65;;
27305;SDS011;14792;50.886;6.468;2024-01-07T10:29:49;48.23;;;28.23;;
27305;SDS011;14792;50.886;6.468;2024-01-07T10:32:55;39.85;;;24.02;;
27305;SDS011;14792;50.886;6.468;2024-01-07T10:35:57;35.95;;;21.45;;
27305;SDS011;14792;50.886;6.468;2024-01-07T10:38:54;36.17;;;22.17;;
27305;SDS011;14792;50.886;6.468;2024-01-07T10:41:56;33.08;;;21.85;;
27305;SDS011;14792;50.886;6.468;2024-01-07T10:45:00;34.80;;;21.93;;
27305;SDS011;14792;50.886;6.468;2024-01-07T10:48:03;36.42;;;23.07;;
27305;SDS011;14792;50.886;6.468;2024-01-07T10:51:03;38.05;;;23.85;;
27305;SDS011;14792;50.886;6.468;2024-01-07T10:54:05;35.70;;;23.65;;
27305;SDS011;14792;50.886;6.468;2024-01-07T10:57:31;34.80;;;22.40;;
27305;SDS011;14792;50.886;6.468;2024-01-07T11:03:40;42.48;;;25.65;;
27305;SDS011;14792;50.886;6.468;2024-01-07T11:06:36;38.60;;;24.67;;
27305;SDS011;14792;50.886;6.468;2024-01-07T11:09:50;37.20;;;25.90;;
27305;SDS011;14792;50.886;6.468;2024-01-07T11:12:55;39.35;;;25.65;;
27305;SDS011;14792;50.886;6.468;2024-01-07T11:15:56;39.55;;;22.87;;
27305;SDS011;14792;50.886;6.468;2024-01-07T11:18:58;40.55;;;23.85;;
27305;SDS011;14792;50.886;6.468;2024-01-07T11:25:28;39.55;;;23.47;;
27305;SDS011;14792;50.886;6.468;2024-01-07T11:31:49;39.50;;;25.30;;
27305;SDS011;14792;50.886;6.468;2024-01-07T11:34:50;33.92;;;23.55;;
27305;SDS011;14792;50.886;6.468;2024-01-07T11:37:52;39.27;;;24.30;;
27305;SDS011;14792;50.886;6.468;2024-01-07T11:40:54;39.53;;;22.90;;
27305;SDS011;14792;50.886;6.468;2024-01-07T11:43:56;37.95;;;24.27;;
27305;SDS011;14792;50.886;6.468;2024-01-07T11:46:57;38.95;;;23.27;;
27305;SDS011;14792;50.886;6.468;2024-01-07T11:49:59;42.38;;;26.10;;
27305;SDS011;14792;50.886;6.468;2024-01-07T11:53:00;37.38;;;23.92;;
27305;SDS011;14792;50.886;6.468;2024-01-07T11:56:02;39.38;;;23.38;;
27305;SDS011;14792;50.886;6.468;2024-01-07T11:59:04;33.20;;;21.62;;
27305;SDS011;14792;50.886;6.468;2024-01-07T12:02:05;31.80;;;20.45;;
27305;SDS011;14792;50.886;6.468;2024-01-07T12:05:07;29.02;;;18.20;;
27305;SDS011;14792;50.886;6.468;2024-01-07T12:08:08;29.70;;;19.62;;
27305;SDS011;14792;50.886;6.468;2024-01-07T12:11:13;29.77;;;18.92;;
27305;SDS011;14792;50.886;6.468;2024-01-07T12:14:14;32.65;;;19.23;;
27305;SDS011;14792;50.886;6.468;2024-01-07T12:17:19;30.62;;;18.73;;
27305;SDS011;14792;50.886;6.468;2024-01-07T12:20:20;32.08;;;20.02;;
27305;SDS011;14792;50.886;6.468;2024-01-07T12:23:22;24.80;;;15.68;;
27305;SDS011;14792;50.886;6.468;2024-01-07T12:26:27;24.47;;;15.40;;
27305;SDS011;14792;50.886;6.468;2024-01-07T12:29:28;26.37;;;15.75;;
27305;SDS011;14792;50.886;6.468;2024-01-07T12:32:30;25.37;;;15.43;;
27305;SDS011;14792;50.886;6.468;2024-01-07T12:35:31;25.15;;;15.78;;
27305;SDS011;14792;50.886;6.468;2024-01-07T12:38:33;24.43;;;15.03;;
27305;SDS011;14792;50.886;6.468;2024-01-07T12:41:34;26.57;;;16.93;;
27305;SDS011;14792;50.886;6.468;2024-01-07T12:44:36;75.12;;;39.48;;
27305;SDS011;14792;50.886;6.468;2024-01-07T12:47:37;30.02;;;18.42;;
27305;SDS011;14792;50.886;6.468;2024-01-07T12:50:39;45.03;;;22.73;;
27305;SDS011;14792;50.886;6.468;2024-01-07T12:53:40;35.08;;;18.32;;
27305;SDS011;14792;50.886;6.468;2024-01-07T12:56:42;23.05;;;13.95;;
27305;SDS011;14792;50.886;6.468;2024-01-07T12:59:44;25.23;;;13.30;;
27305;SDS011;14792;50.886;6.468;2024-01-07T13:02:45;22.25;;;12.35;;
27305;SDS011;14792;50.886;6.468;2024-01-07T13:05:47;21.05;;;12.20;;
27305;SDS011;14792;50.886;6.468;2024-01-07T13:08:48;17.77;;;11.00;;
27305;SDS011;14792;50.886;6.468;2024-01-07T13:11:50;19.62;;;11.30;;
27305;SDS011;14792;50.886;6.468;2024-01-07T13:14:52;20.37;;;12.05;;
27305;SDS011;14792;50.886;6.468;2024-01-07T13:17:53;19.73;;;11.53;;
27305;SDS011;14792;50.886;6.468;2024-01-07T13:20:58;19.25;;;11.00;;
27305;SDS011;14792;50.886;6.468;2024-01-07T13:23:56;20.37;;;12.10;;
27305;SDS011;14792;50.886;6.468;2024-01-07T13:26:58;19.17;;;12.13;;
27305;SDS011;14792;50.886;6.468;2024-01-07T13:30:00;22.55;;;11.22;;
27305;SDS011;14792;50.886;6.468;2024-01-07T13:33:01;16.80;;;9.85;;
27305;SDS011;14792;50.886;6.468;2024-01-07T13:36:03;16.93;;;9.70;;
27305;SDS011;14792;50.886;6.468;2024-01-07T13:39:04;16.42;;;9.63;;
27305;SDS011;14792;50.886;6.468;2024-01-07T13:42:06;16.40;;;10.70;;
27305;SDS011;14792;50.886;6.468;2024-01-07T13:45:07;15.90;;;10.60;;
27305;SDS011;14792;50.886;6.468;2024-01-07T13:48:09;18.82;;;10.43;;
27305;SDS011;14792;50.886;6.468;2024-01-07T13:51:11;16.15;;;9.65;;
27305;SDS011;14792;50.886;6.468;2024-01-07T13:54:12;18.55;;;10.03;;
27305;SDS011;14792;50.886;6.468;2024-01-07T13:57:14;14.07;;;9.45;;
27305;SDS011;14792;50.886;6.468;2024-01-07T14:00:15;15.15;;;9.25;;
27305;SDS011;14792;50.886;6.468;2024-01-07T14:03:17;13.65;;;9.03;;
27305;SDS011;14792;50.886;6.468;2024-01-07T14:06:19;16.80;;;8.45;;
27305;SDS011;14792;50.886;6.468;2024-01-07T14:09:20;15.55;;;8.58;;
27305;SDS011;14792;50.886;6.468;2024-01-07T14:12:22;15.30;;;8.25;;
27305;SDS011;14792;50.886;6.468;2024-01-07T14:15:24;14.00;;;8.00;;
27305;SDS011;14792;50.886;6.468;2024-01-07T14:18:25;15.80;;;9.33;;
27305;SDS011;14792;50.886;6.468;2024-01-07T14:21:27;22.25;;;11.12;;
27305;SDS011;14792;50.886;6.468;2024-01-07T14:24:29;14.47;;;8.05;;
27305;SDS011;14792;50.886;6.468;2024-01-07T14:27:30;13.32;;;7.83;;
27305;SDS011;14792;50.886;6.468;2024-01-07T14:30:32;13.35;;;8.13;;
27305;SDS011;14792;50.886;6.468;2024-01-07T14:33:33;13.05;;;8.10;;
27305;SDS011;14792;50.886;6.468;2024-01-07T14:36:38;12.40;;;8.23;;
27305;SDS011;14792;50.886;6.468;2024-01-07T14:39:37;13.22;;;7.90;;
27305;SDS011;14792;50.886;6.468;2024-01-07T14:42:38;13.32;;;7.90;;
27305;SDS011;14792;50.886;6.468;2024-01-07T14:45:41;11.00;;;7.37;;
27305;SDS011;14792;50.886;6.468;2024-01-07T14:48:43;10.35;;;8.55;;
27305;SDS011;14792;50.886;6.468;2024-01-07T14:51:44;13.15;;;7.78;;
27305;SDS011;14792;50.886;6.468;2024-01-07T14:54:46;20.40;;;12.35;;
27305;SDS011;14792;50.886;6.468;2024-01-07T14:57:48;16.52;;;9.20;;
27305;SDS011;14792;50.886;6.468;2024-01-07T15:03:51;15.23;;;8.03;;
27305;SDS011;14792;50.886;6.468;2024-01-07T15:06:52;10.68;;;7.55;;
27305;SDS011;14792;50.886;6.468;2024-01-07T15:09:54;9.50;;;6.80;;
27305;SDS011;14792;50.886;6.468;2024-01-07T15:12:55;10.60;;;6.50;;
27305;SDS011;14792;50.886;6.468;2024-01-07T15:15:58;10.48;;;6.80;;
27305;SDS011;14792;50.886;6.468;2024-01-07T15:19:00;11.38;;;6.30;;
27305;SDS011;14792;50.886;6.468;2024-01-07T15:22:01;13.43;;;7.35;;
27305;SDS011;14792;50.886;6.468;2024-01-07T15:25:03;11.40;;;5.78;;
27305;SDS011;14792;50.886;6.468;2024-01-07T15:28:04;8.40;;;5.72;;
27305;SDS011;14792;50.886;6.468;2024-01-07T15:31:08;10.00;;;5.58;;
27305;SDS011;14792;50.886;6.468;2024-01-07T15:34:08;15.23;;;7.90;;
27305;SDS011;14792;50.886;6.468;2024-01-07T15:37:10;22.37;;;10.00;;
27305;SDS011;14792;50.886;6.468;2024-01-07T15:40:11;12.18;;;5.37;;
27305;SDS011;14792;50.886;6.468;2024-01-07T15:43:13;12.05;;;5.87;;
27305;SDS011;14792;50.886;6.468;2024-01-07T15:46:14;14.40;;;5.80;;
27305;SDS011;14792;50.886;6.468;2024-01-07T15:49:16;16.95;;;6.83;;
27305;SDS011;14792;50.886;6.468;2024-01-07T15:52:18;22.00;;;6.53;;
27305;SDS011;14792;50.886;6.468;2024-01-07T15:55:19;13.78;;;6.35;;
27305;SDS011;14792;50.886;6.468;2024-01-07T15:58:21;21.00;;;7.37;;
27305;SDS011;14792;50.886;6.468;2024-01-07T16:01:22;14.47;;;6.65;;
27305;SDS011;14792;50.886;6.468;2024-01-07T16:04:24;11.15;;;4.47;;
27305;SDS011;14792;50.886;6.468;2024-01-07T16:07:26;7.03;;;4.30;;
27305;SDS011;14792;50.886;6.468;2024-01-07T16:10:27;7.90;;;4.92;;
27305;SDS011;14792;50.886;6.468;2024-01-07T16:13:29;6.67;;;4.03;;
27305;SDS011;14792;50.886;6.468;2024-01-07T16:16:30;7.72;;;4.58;;
27305;SDS011;14792;50.886;6.468;2024-01-07T16:19:32;11.60;;;6.25;;
27305;SDS011;14792;50.886;6.468;2024-01-07T16:22:34;9.60;;;5.50;;
27305;SDS011;14792;50.886;6.468;2024-01-07T16:25:35;8.38;;;3.90;;
27305;SDS011;14792;50.886;6.468;2024-01-07T16:28:37;8.80;;;4.00;;
27305;SDS011;14792;50.886;6.468;2024-01-07T16:31:38;7.30;;;4.37;;
27305;SDS011;14792;50.886;6.468;2024-01-07T16:34:40;9.75;;;4.58;;
27305;SDS011;14792;50.886;6.468;2024-01-07T16:37:41;4.78;;;3.40;;
27305;SDS011;14792;50.886;6.468;2024-01-07T16:40:43;6.33;;;3.62;;
27305;SDS011;14792;50.886;6.468;2024-01-07T16:43:45;7.83;;;4.42;;
27305;SDS011;14792;50.886;6.468;2024-01-07T16:46:46;7.90;;;4.55;;
27305;SDS011;14792;50.886;6.468;2024-01-07T16:49:48;9.90;;;4.05;;
27305;SDS011;14792;50.886;6.468;2024-01-07T16:52:49;6.17;;;4.00;;
27305;SDS011;14792;50.886;6.468;2024-01-07T16:55:51;6.47;;;3.98;;
27305;SDS011;14792;50.886;6.468;2024-01-07T16:58:53;6.05;;;3.50;;
27305;SDS011;14792;50.886;6.468;2024-01-07T17:01:54;7.15;;;3.22;;
27305;SDS011;14792;50.886;6.468;2024-01-07T17:04:56;7.05;;;3.72;;
27305;SDS011;14792;50.886;6.468;2024-01-07T17:07:57;6.42;;;3.65;;
27305;SDS011;14792;50.886;6.468;2024-01-07T17:10:59;6.78;;;3.52;;
27305;SDS011;14792;50.886;6.468;2024-01-07T17:14:00;5.35;;;3.33;;
27305;SDS011;14792;50.886;6.468;2024-01-07T17:17:02;9.88;;;3.33;;
27305;SDS011;14792;50.886;6.468;2024-01-07T17:20:04;3.60;;;2.90;;
27305;SDS011;14792;50.886;6.468;2024-01-07T17:26:07;8.45;;;3.00;;
27305;SDS011;14792;50.886;6.468;2024-01-07T17:29:08;4.05;;;2.95;;
27305;SDS011;14792;50.886;6.468;2024-01-07T17:32:10;6.60;;;3.67;;
27305;SDS011;14792;50.886;6.468;2024-01-07T17:35:11;6.37;;;3.35;;
27305;SDS011;14792;50.886;6.468;2024-01-07T17:38:13;5.35;;;3.17;;
27305;SDS011;14792;50.886;6.468;2024-01-07T17:41:15;5.67;;;3.20;;
27305;SDS011;14792;50.886;6.468;2024-01-07T17:44:16;6.33;;;3.50;;
27305;SDS011;14792;50.886;6.468;2024-01-07T17:47:18;7.78;;;3.42;;
27305;SDS011;14792;50.886;6.468;2024-01-07T17:50:19;5.12;;;3.27;;
27305;SDS011;14792;50.886;6.468;2024-01-07T17:53:21;6.45;;;3.75;;
27305;SDS011;14792;50.886;6.468;2024-01-07T17:56:22;7.33;;;5.42;;
27305;SDS011;14792;50.886;6.468;2024-01-07T17:59:24;5.65;;;4.33;;
27305;SDS011;14792;50.886;6.468;2024-01-07T18:02:26;10.63;;;5.33;;
27305;SDS011;14792;50.886;6.468;2024-01-07T18:05:27;6.83;;;4.65;;